Girvan, United Kingdom
Current Conditions -  °F | °C
As of 8:50 AM on Sunday 23 Nov 2014 (Local Time) from EGPK Reporting Station
Few Clouds Few Clouds  
Wind Chill: 36°   Ceiling: Unl
Heat Index: 39°   Visibility: 6mi
Dew Point: 36°   Wind: 5mph
Humidity: 87%   Direction: 110°ESE
Pressure: 30.06"   Gusts: NA
Location:  55.24°N, 4.86°W
Report Text: EGPK 230850Z 11004KT 080V140 9999 FEW032 04/02 Q1018
Loading
Personal Weather Stations






























Interactive Weather Map New forecast layout! Learn more

10-Day Weather Forecast

Advertisements
Track Severe Weather on mobile